sensor_id;sensor_type;location;lat;lon;timestamp;pressure;altitude;pressure_sealevel;temperature;humidity
70833;BME280;58452;59.418;17.962;2023-01-28T00:00:48;102123.13;;;-2.16;80.64
70833;BME280;58452;59.418;17.962;2023-01-28T00:03:13;102131.44;;;-2.09;80.52
70833;BME280;58452;59.418;17.962;2023-01-28T00:05:40;102121.88;;;-1.93;80.11
70833;BME280;58452;59.418;17.962;2023-01-28T00:08:05;102119.91;;;-1.79;79.25
70833;BME280;58452;59.418;17.962;2023-01-28T00:10:31;102108.06;;;-1.77;79.60
70833;BME280;58452;59.418;17.962;2023-01-28T00:12:56;102111.16;;;-2.08;80.31
70833;BME280;58452;59.418;17.962;2023-01-28T00:15:22;102110.03;;;-1.91;79.83
70833;BME280;58452;59.418;17.962;2023-01-28T00:17:49;102104.00;;;-1.84;80.08
70833;BME280;58452;59.418;17.962;2023-01-28T00:20:15;102090.13;;;-1.65;79.24
70833;BME280;58452;59.418;17.962;2023-01-28T00:22:46;102092.59;;;-1.62;78.83
70833;BME280;58452;59.418;17.962;2023-01-28T00:25:12;102090.84;;;-1.60;79.06
70833;BME280;58452;59.418;17.962;2023-01-28T00:27:37;102086.00;;;-1.69;79.37
70833;BME280;58452;59.418;17.962;2023-01-28T00:30:03;102078.41;;;-1.69;78.55
70833;BME280;58452;59.418;17.962;2023-01-28T00:32:28;102074.19;;;-1.70;78.69
70833;BME280;58452;59.418;17.962;2023-01-28T00:34:54;102074.19;;;-1.70;78.41
70833;BME280;58452;59.418;17.962;2023-01-28T00:37:20;102073.34;;;-1.69;78.50
70833;BME280;58452;59.418;17.962;2023-01-28T00:39:48;102067.69;;;-1.83;79.64
70833;BME280;58452;59.418;17.962;2023-01-28T00:42:14;102061.56;;;-1.72;79.01
70833;BME280;58452;59.418;17.962;2023-01-28T00:44:40;102055.63;;;-1.69;78.57
70833;BME280;58452;59.418;17.962;2023-01-28T00:47:06;102048.75;;;-1.64;79.03
70833;BME280;58452;59.418;17.962;2023-01-28T00:49:31;102055.22;;;-1.91;78.82
70833;BME280;58452;59.418;17.962;2023-01-28T00:51:57;102049.13;;;-1.82;78.70
70833;BME280;58452;59.418;17.962;2023-01-28T00:54:22;102047.53;;;-1.86;79.16
70833;BME280;58452;59.418;17.962;2023-01-28T00:56:47;102039.00;;;-1.82;78.95
70833;BME280;58452;59.418;17.962;2023-01-28T00:59:13;102029.03;;;-1.88;78.77
70833;BME280;58452;59.418;17.962;2023-01-28T01:01:38;102028.13;;;-1.86;78.75
70833;BME280;58452;59.418;17.962;2023-01-28T01:04:04;102033.03;;;-1.78;78.30
70833;BME280;58452;59.418;17.962;2023-01-28T01:06:36;102032.03;;;-1.71;78.23
70833;BME280;58452;59.418;17.962;2023-01-28T01:09:07;102022.69;;;-1.68;77.98
70833;BME280;58452;59.418;17.962;2023-01-28T01:11:34;102016.66;;;-1.62;78.12
70833;BME280;58452;59.418;17.962;2023-01-28T01:14:00;102021.56;;;-1.55;77.70
70833;BME280;58452;59.418;17.962;2023-01-28T01:16:31;102015.44;;;-1.46;77.55
70833;BME280;58452;59.418;17.962;2023-01-28T01:18:57;102011.72;;;-1.68;78.01
70833;BME280;58452;59.418;17.962;2023-01-28T01:21:26;102005.72;;;-1.64;78.16
70833;BME280;58452;59.418;17.962;2023-01-28T01:23:52;102001.25;;;-1.53;77.13
70833;BME280;58452;59.418;17.962;2023-01-28T01:26:18;102004.72;;;-1.57;77.32
70833;BME280;58452;59.418;17.962;2023-01-28T01:28:44;101987.94;;;-1.61;77.53
70833;BME280;58452;59.418;17.962;2023-01-28T01:31:20;101986.97;;;-1.56;77.78
70833;BME280;58452;59.418;17.962;2023-01-28T01:33:47;101981.94;;;-1.57;77.70
70833;BME280;58452;59.418;17.962;2023-01-28T01:36:15;101972.75;;;-1.61;77.80
70833;BME280;58452;59.418;17.962;2023-01-28T01:38:41;101978.56;;;-1.58;77.92
70833;BME280;58452;59.418;17.962;2023-01-28T01:41:08;101970.97;;;-1.56;77.60
70833;BME280;58452;59.418;17.962;2023-01-28T01:43:52;101970.81;;;-1.50;77.24
70833;BME280;58452;59.418;17.962;2023-01-28T01:46:37;101957.72;;;-1.67;77.34
70833;BME280;58452;59.418;17.962;2023-01-28T01:49:24;101954.59;;;-1.41;76.42
70833;BME280;58452;59.418;17.962;2023-01-28T01:51:55;101957.13;;;-1.43;76.82
70833;BME280;58452;59.418;17.962;2023-01-28T01:54:23;101951.88;;;-1.34;76.46
70833;BME280;58452;59.418;17.962;2023-01-28T01:56:51;101946.06;;;-1.37;76.21
70833;BME280;58452;59.418;17.962;2023-01-28T01:59:27;101946.63;;;-1.26;75.76
70833;BME280;58452;59.418;17.962;2023-01-28T02:01:53;101944.19;;;-1.31;75.68
70833;BME280;58452;59.418;17.962;2023-01-28T02:04:25;101933.41;;;-1.37;76.02
70833;BME280;58452;59.418;17.962;2023-01-28T02:06:51;101927.47;;;-1.36;76.33
70833;BME280;58452;59.418;17.962;2023-01-28T02:09:26;101913.59;;;-1.22;75.73
70833;BME280;58452;59.418;17.962;2023-01-28T02:11:55;101916.63;;;-1.08;75.01
70833;BME280;58452;59.418;17.962;2023-01-28T02:14:25;101911.66;;;-1.12;75.58
70833;BME280;58452;59.418;17.962;2023-01-28T02:16:52;101911.69;;;-1.14;75.19
70833;BME280;58452;59.418;17.962;2023-01-28T02:19:19;101900.56;;;-1.07;74.72
70833;BME280;58452;59.418;17.962;2023-01-28T02:22:02;101902.44;;;-1.15;75.18
70833;BME280;58452;59.418;17.962;2023-01-28T02:24:55;101880.41;;;-1.11;76.03
70833;BME280;58452;59.418;17.962;2023-01-28T02:37:01;101861.28;;;-1.23;76.22
70833;BME280;58452;59.418;17.962;2023-01-28T02:39:35;101852.75;;;-1.19;75.79
70833;BME280;58452;59.418;17.962;2023-01-28T02:42:18;101851.53;;;-1.38;77.07
70833;BME280;58452;59.418;17.962;2023-01-28T02:44:45;101847.34;;;-1.39;76.46
70833;BME280;58452;59.418;17.962;2023-01-28T02:47:12;101840.16;;;-1.22;76.55
70833;BME280;58452;59.418;17.962;2023-01-28T02:49:59;101828.91;;;-1.12;75.54
70833;BME280;58452;59.418;17.962;2023-01-28T02:58:36;101833.16;;;-1.12;75.61
70833;BME280;58452;59.418;17.962;2023-01-28T03:01:18;101817.31;;;-1.20;77.20
70833;BME280;58452;59.418;17.962;2023-01-28T03:04:19;101811.78;;;-1.34;77.07
70833;BME280;58452;59.418;17.962;2023-01-28T03:06:50;101810.91;;;-1.33;77.12
70833;BME280;58452;59.418;17.962;2023-01-28T03:09:19;101806.84;;;-1.39;78.04
70833;BME280;58452;59.418;17.962;2023-01-28T03:11:56;101799.72;;;-1.25;78.33
70833;BME280;58452;59.418;17.962;2023-01-28T03:14:44;101799.78;;;-1.28;78.28
70833;BME280;58452;59.418;17.962;2023-01-28T03:17:51;101791.59;;;-1.36;78.01
70833;BME280;58452;59.418;17.962;2023-01-28T03:20:50;101787.19;;;-1.29;78.07
70833;BME280;58452;59.418;17.962;2023-01-28T03:23:43;101779.38;;;-1.22;76.97
70833;BME280;58452;59.418;17.962;2023-01-28T03:26:30;101780.78;;;-1.12;76.72
70833;BME280;58452;59.418;17.962;2023-01-28T03:29:18;101784.38;;;-1.19;77.81
70833;BME280;58452;59.418;17.962;2023-01-28T03:32:04;101779.72;;;-1.35;78.04
70833;BME280;58452;59.418;17.962;2023-01-28T03:34:48;101769.06;;;-1.16;77.84
70833;BME280;58452;59.418;17.962;2023-01-28T03:37:32;101765.03;;;-1.21;77.65
70833;BME280;58452;59.418;17.962;2023-01-28T03:40:07;101756.94;;;-1.05;77.19
70833;BME280;58452;59.418;17.962;2023-01-28T03:42:33;101753.38;;;-0.98;76.89
70833;BME280;58452;59.418;17.962;2023-01-28T03:44:59;101751.69;;;-0.99;77.41
70833;BME280;58452;59.418;17.962;2023-01-28T03:47:29;101753.19;;;-0.91;77.39
70833;BME280;58452;59.418;17.962;2023-01-28T03:49:56;101758.94;;;-0.85;76.44
70833;BME280;58452;59.418;17.962;2023-01-28T03:52:29;101745.78;;;-0.99;76.93
70833;BME280;58452;59.418;17.962;2023-01-28T03:54:55;101724.44;;;-0.90;77.28
70833;BME280;58452;59.418;17.962;2023-01-28T03:57:23;101730.13;;;-0.82;77.40
70833;BME280;58452;59.418;17.962;2023-01-28T03:59:49;101730.84;;;-0.77;77.36
70833;BME280;58452;59.418;17.962;2023-01-28T04:02:15;101720.50;;;-0.71;76.68
70833;BME280;58452;59.418;17.962;2023-01-28T04:04:41;101702.03;;;-0.75;77.35
70833;BME280;58452;59.418;17.962;2023-01-28T04:07:08;101701.88;;;-0.70;77.46
70833;BME280;58452;59.418;17.962;2023-01-28T04:09:37;101698.03;;;-0.82;77.34
70833;BME280;58452;59.418;17.962;2023-01-28T04:12:03;101693.69;;;-0.78;78.11
70833;BME280;58452;59.418;17.962;2023-01-28T04:14:29;101693.22;;;-0.63;77.67
70833;BME280;58452;59.418;17.962;2023-01-28T04:16:55;101691.81;;;-0.73;78.36
70833;BME280;58452;59.418;17.962;2023-01-28T04:19:21;101692.59;;;-0.70;77.95
70833;BME280;58452;59.418;17.962;2023-01-28T04:21:47;101691.31;;;-0.84;78.04
70833;BME280;58452;59.418;17.962;2023-01-28T04:24:13;101693.84;;;-0.84;78.53
70833;BME280;58452;59.418;17.962;2023-01-28T04:26:39;101677.00;;;-0.85;78.71
70833;BME280;58452;59.418;17.962;2023-01-28T04:29:05;101673.03;;;-0.66;77.71
70833;BME280;58452;59.418;17.962;2023-01-28T04:31:31;101661.66;;;-0.55;77.38
70833;BME280;58452;59.418;17.962;2023-01-28T04:33:57;101659.09;;;-0.53;76.88
70833;BME280;58452;59.418;17.962;2023-01-28T04:36:23;101646.28;;;-0.48;77.19
70833;BME280;58452;59.418;17.962;2023-01-28T04:38:48;101646.91;;;-0.42;77.25
70833;BME280;58452;59.418;17.962;2023-01-28T04:41:14;101636.75;;;-0.42;76.78
70833;BME280;58452;59.418;17.962;2023-01-28T04:43:39;101641.00;;;-0.42;77.17
70833;BME280;58452;59.418;17.962;2023-01-28T04:46:05;101646.19;;;-0.45;77.40
70833;BME280;58452;59.418;17.962;2023-01-28T04:48:30;101633.53;;;-0.47;77.57
70833;BME280;58452;59.418;17.962;2023-01-28T04:50:56;101633.84;;;-0.56;77.72
70833;BME280;58452;59.418;17.962;2023-01-28T04:53:21;101635.69;;;-0.61;77.76
70833;BME280;58452;59.418;17.962;2023-01-28T04:55:47;101632.28;;;-0.60;78.34
70833;BME280;58452;59.418;17.962;2023-01-28T04:58:13;101627.00;;;-0.54;78.18
70833;BME280;58452;59.418;17.962;2023-01-28T05:00:38;101619.53;;;-0.59;78.76
70833;BME280;58452;59.418;17.962;2023-01-28T05:03:03;101609.94;;;-0.49;79.03
70833;BME280;58452;59.418;17.962;2023-01-28T05:05:29;101606.63;;;-0.51;79.22
70833;BME280;58452;59.418;17.962;2023-01-28T05:07:55;101597.22;;;-0.47;78.96
70833;BME280;58452;59.418;17.962;2023-01-28T05:10:21;101592.97;;;-0.47;78.17
70833;BME280;58452;59.418;17.962;2023-01-28T05:12:47;101591.97;;;-0.41;78.53
70833;BME280;58452;59.418;17.962;2023-01-28T05:15:14;101574.59;;;-0.29;78.78
70833;BME280;58452;59.418;17.962;2023-01-28T05:17:40;101575.41;;;-0.27;78.12
70833;BME280;58452;59.418;17.962;2023-01-28T05:20:12;101571.75;;;-0.20;79.02
70833;BME280;58452;59.418;17.962;2023-01-28T05:22:39;101566.34;;;-0.11;79.03
70833;BME280;58452;59.418;17.962;2023-01-28T05:25:05;101561.09;;;-0.05;78.71
70833;BME280;58452;59.418;17.962;2023-01-28T05:27:31;101556.72;;;-0.01;78.04
70833;BME280;58452;59.418;17.962;2023-01-28T05:29:57;101549.28;;;-0.06;78.48
70833;BME280;58452;59.418;17.962;2023-01-28T05:32:23;101545.75;;;-0.02;78.47
70833;BME280;58452;59.418;17.962;2023-01-28T05:34:48;101547.34;;;0.01;79.03
70833;BME280;58452;59.418;17.962;2023-01-28T05:37:14;101546.97;;;0.12;78.27
70833;BME280;58452;59.418;17.962;2023-01-28T05:39:39;101545.09;;;0.17;77.55
70833;BME280;58452;59.418;17.962;2023-01-28T05:42:05;101538.81;;;0.04;79.12
70833;BME280;58452;59.418;17.962;2023-01-28T05:44:30;101541.56;;;-0.03;79.18
70833;BME280;58452;59.418;17.962;2023-01-28T05:46:55;101546.19;;;-0.14;79.28
70833;BME280;58452;59.418;17.962;2023-01-28T05:49:21;101545.34;;;-0.14;79.53
70833;BME280;58452;59.418;17.962;2023-01-28T05:51:46;101540.59;;;-0.23;79.77
70833;BME280;58452;59.418;17.962;2023-01-28T05:54:12;101547.84;;;-0.13;79.27
70833;BME280;58452;59.418;17.962;2023-01-28T05:56:38;101541.72;;;-0.07;79.23
70833;BME280;58452;59.418;17.962;2023-01-28T05:59:04;101534.47;;;-0.18;78.73
70833;BME280;58452;59.418;17.962;2023-01-28T06:01:30;101529.13;;;-0.33;79.15
70833;BME280;58452;59.418;17.962;2023-01-28T06:03:55;101531.06;;;-0.17;79.25
70833;BME280;58452;59.418;17.962;2023-01-28T06:06:21;101543.00;;;-0.19;78.93
70833;BME280;58452;59.418;17.962;2023-01-28T06:08:47;101535.53;;;-0.23;79.61
70833;BME280;58452;59.418;17.962;2023-01-28T06:11:12;101528.88;;;-0.26;79.54
70833;BME280;58452;59.418;17.962;2023-01-28T06:13:37;101524.97;;;-0.11;79.48
70833;BME280;58452;59.418;17.962;2023-01-28T06:16:04;101539.78;;;-0.24;79.53
70833;BME280;58452;59.418;17.962;2023-01-28T06:18:30;101538.53;;;-0.12;79.72
70833;BME280;58452;59.418;17.962;2023-01-28T06:20:55;101534.22;;;-0.10;78.82
70833;BME280;58452;59.418;17.962;2023-01-28T06:23:20;101542.34;;;-0.01;78.39
70833;BME280;58452;59.418;17.962;2023-01-28T06:25:46;101540.13;;;0.14;78.24
70833;BME280;58452;59.418;17.962;2023-01-28T06:28:11;101540.13;;;-0.10;78.57
70833;BME280;58452;59.418;17.962;2023-01-28T06:30:37;101527.13;;;-0.01;78.45
70833;BME280;58452;59.418;17.962;2023-01-28T06:33:02;101533.81;;;0.00;78.72
70833;BME280;58452;59.418;17.962;2023-01-28T06:35:28;101530.66;;;-0.05;79.45
70833;BME280;58452;59.418;17.962;2023-01-28T06:37:53;101537.25;;;-0.24;79.26
70833;BME280;58452;59.418;17.962;2023-01-28T06:40:20;101539.56;;;-0.18;79.07
70833;BME280;58452;59.418;17.962;2023-01-28T06:42:47;101540.59;;;-0.23;79.95
70833;BME280;58452;59.418;17.962;2023-01-28T06:45:13;101531.03;;;-0.15;80.23
70833;BME280;58452;59.418;17.962;2023-01-28T06:47:38;101536.63;;;-0.07;79.39
70833;BME280;58452;59.418;17.962;2023-01-28T06:50:05;101525.56;;;-0.05;78.73
70833;BME280;58452;59.418;17.962;2023-01-28T06:52:30;101529.53;;;-0.21;79.83
70833;BME280;58452;59.418;17.962;2023-01-28T06:54:56;101525.06;;;-0.14;80.27
70833;BME280;58452;59.418;17.962;2023-01-28T06:57:21;101526.09;;;-0.20;80.07
70833;BME280;58452;59.418;17.962;2023-01-28T06:59:46;101516.72;;;-0.18;79.67
70833;BME280;58452;59.418;17.962;2023-01-28T07:02:12;101508.25;;;-0.17;80.55
70833;BME280;58452;59.418;17.962;2023-01-28T07:04:37;101504.72;;;-0.13;79.48
70833;BME280;58452;59.418;17.962;2023-01-28T07:07:03;101504.75;;;-0.14;80.39
70833;BME280;58452;59.418;17.962;2023-01-28T07:09:28;101507.13;;;-0.10;80.46
70833;BME280;58452;59.418;17.962;2023-01-28T07:11:53;101497.53;;;-0.25;80.65
70833;BME280;58452;59.418;17.962;2023-01-28T07:14:19;101500.31;;;-0.08;80.71
70833;BME280;58452;59.418;17.962;2023-01-28T07:16:44;101507.22;;;-0.11;80.49
70833;BME280;58452;59.418;17.962;2023-01-28T07:19:10;101502.06;;;-0.10;80.19
70833;BME280;58452;59.418;17.962;2023-01-28T07:21:35;101506.69;;;-0.21;81.16
70833;BME280;58452;59.418;17.962;2023-01-28T07:24:01;101502.78;;;-0.06;80.64
70833;BME280;58452;59.418;17.962;2023-01-28T07:26:29;101505.28;;;-0.05;80.13
70833;BME280;58452;59.418;17.962;2023-01-28T07:28:55;101507.38;;;-0.16;81.26
70833;BME280;58452;59.418;17.962;2023-01-28T07:31:20;101501.84;;;-0.27;81.44
70833;BME280;58452;59.418;17.962;2023-01-28T07:33:51;101498.22;;;-0.20;81.45
70833;BME280;58452;59.418;17.962;2023-01-28T07:36:16;101499.09;;;-0.21;81.69
70833;BME280;58452;59.418;17.962;2023-01-28T07:38:42;101500.41;;;-0.11;81.76
70833;BME280;58452;59.418;17.962;2023-01-28T07:41:07;101496.66;;;-0.24;82.17
70833;BME280;58452;59.418;17.962;2023-01-28T07:43:32;101491.53;;;-0.22;82.58
70833;BME280;58452;59.418;17.962;2023-01-28T07:46:01;101488.09;;;-0.21;82.50
70833;BME280;58452;59.418;17.962;2023-01-28T07:48:27;101478.78;;;-0.21;82.93
70833;BME280;58452;59.418;17.962;2023-01-28T07:50:52;101483.53;;;-0.12;82.37
70833;BME280;58452;59.418;17.962;2023-01-28T07:53:18;101476.81;;;-0.13;82.70
70833;BME280;58452;59.418;17.962;2023-01-28T07:55:44;101468.41;;;-0.15;83.07
70833;BME280;58452;59.418;17.962;2023-01-28T07:58:10;101482.13;;;-0.19;82.83
70833;BME280;58452;59.418;17.962;2023-01-28T08:00:37;101472.72;;;-0.17;82.76
70833;BME280;58452;59.418;17.962;2023-01-28T08:03:05;101454.53;;;-0.05;82.62
70833;BME280;58452;59.418;17.962;2023-01-28T08:08:08;101453.31;;;-0.18;83.99
70833;BME280;58452;59.418;17.962;2023-01-28T08:10:34;101452.19;;;-0.11;83.49
70833;BME280;58452;59.418;17.962;2023-01-28T08:13:00;101463.56;;;-0.21;83.68
70833;BME280;58452;59.418;17.962;2023-01-28T08:15:26;101453.94;;;-0.11;83.79
70833;BME280;58452;59.418;17.962;2023-01-28T08:17:56;101452.75;;;-0.03;82.98
70833;BME280;58452;59.418;17.962;2023-01-28T08:20:23;101436.50;;;0.03;83.04
70833;BME280;58452;59.418;17.962;2023-01-28T08:22:49;101436.38;;;0.06;83.16
70833;BME280;58452;59.418;17.962;2023-01-28T08:25:14;101429.59;;;0.07;83.61
70833;BME280;58452;59.418;17.962;2023-01-28T08:27:40;101431.69;;;-0.05;84.16
70833;BME280;58452;59.418;17.962;2023-01-28T08:30:06;101427.50;;;-0.06;84.08
70833;BME280;58452;59.418;17.962;2023-01-28T08:32:33;101433.44;;;-0.07;84.47
70833;BME280;58452;59.418;17.962;2023-01-28T08:34:59;101420.44;;;0.03;84.54
70833;BME280;58452;59.418;17.962;2023-01-28T08:37:24;101427.34;;;-0.01;84.90
70833;BME280;58452;59.418;17.962;2023-01-28T08:39:50;101419.72;;;-0.01;84.69
70833;BME280;58452;59.418;17.962;2023-01-28T08:42:15;101423.38;;;0.14;84.73
70833;BME280;58452;59.418;17.962;2023-01-28T08:44:41;101430.78;;;-0.04;84.94
70833;BME280;58452;59.418;17.962;2023-01-28T08:47:06;101429.78;;;0.00;85.25
70833;BME280;58452;59.418;17.962;2023-01-28T08:49:32;101423.69;;;0.06;85.26
70833;BME280;58452;59.418;17.962;2023-01-28T08:51:57;101425.25;;;0.09;85.63
70833;BME280;58452;59.418;17.962;2023-01-28T08:54:23;101429.78;;;0.00;84.80
70833;BME280;58452;59.418;17.962;2023-01-28T08:56:48;101441.31;;;0.09;84.70
70833;BME280;58452;59.418;17.962;2023-01-28T08:59:15;101430.22;;;0.12;85.65
70833;BME280;58452;59.418;17.962;2023-01-28T09:01:41;101427.03;;;0.07;85.69
70833;BME280;58452;59.418;17.962;2023-01-28T09:04:06;101413.38;;;0.11;85.38
70833;BME280;58452;59.418;17.962;2023-01-28T09:06:32;101415.47;;;0.21;85.52
70833;BME280;58452;59.418;17.962;2023-01-28T09:09:00;101399.19;;;0.27;85.04
70833;BME280;58452;59.418;17.962;2023-01-28T09:11:27;101402.72;;;0.23;85.28
70833;BME280;58452;59.418;17.962;2023-01-28T09:13:53;101400.31;;;0.20;85.25
70833;BME280;58452;59.418;17.962;2023-01-28T09:16:18;101387.63;;;0.20;85.14
70833;BME280;58452;59.418;17.962;2023-01-28T09:18:44;101372.88;;;0.29;84.95
70833;BME280;58452;59.418;17.962;2023-01-28T09:21:10;101384.72;;;0.29;84.90
70833;BME280;58452;59.418;17.962;2023-01-28T09:23:36;101369.28;;;0.33;84.72
70833;BME280;58452;59.418;17.962;2023-01-28T09:26:03;101369.78;;;0.43;84.46
70833;BME280;58452;59.418;17.962;2023-01-28T09:28:29;101369.47;;;0.51;83.85
70833;BME280;58452;59.418;17.962;2023-01-28T09:33:27;101346.25;;;0.38;85.19
70833;BME280;58452;59.418;17.962;2023-01-28T09:35:52;101352.19;;;0.38;85.18
70833;BME280;58452;59.418;17.962;2023-01-28T09:38:18;101342.59;;;0.45;85.06
70833;BME280;58452;59.418;17.962;2023-01-28T09:40:43;101345.44;;;0.37;85.24
70833;BME280;58452;59.418;17.962;2023-01-28T09:45:58;101335.06;;;0.43;85.72
70833;BME280;58452;59.418;17.962;2023-01-28T09:48:33;101339.75;;;0.53;85.39
70833;BME280;58452;59.418;17.962;2023-01-28T09:51:02;101321.66;;;0.60;85.01
70833;BME280;58452;59.418;17.962;2023-01-28T09:53:35;101312.88;;;0.67;85.05
70833;BME280;58452;59.418;17.962;2023-01-28T09:56:04;101317.91;;;0.69;84.75
70833;BME280;58452;59.418;17.962;2023-01-28T09:58:31;101321.38;;;0.66;84.92
70833;BME280;58452;59.418;17.962;2023-01-28T10:03:57;101334.84;;;0.68;85.54
70833;BME280;58452;59.418;17.962;2023-01-28T10:09:31;101320.59;;;0.66;86.37
70833;BME280;58452;59.418;17.962;2023-01-28T10:12:11;101320.97;;;0.77;86.30
70833;BME280;58452;59.418;17.962;2023-01-28T10:14:53;101316.63;;;0.79;85.52
70833;BME280;58452;59.418;17.962;2023-01-28T10:17:28;101311.97;;;0.88;85.25
70833;BME280;58452;59.418;17.962;2023-01-28T10:20:13;101306.88;;;0.88;85.34
70833;BME280;58452;59.418;17.962;2023-01-28T10:22:53;101293.44;;;0.86;85.88
70833;BME280;58452;59.418;17.962;2023-01-28T10:25:22;101292.06;;;0.98;85.55
70833;BME280;58452;59.418;17.962;2023-01-28T10:27:50;101294.81;;;0.93;85.40
70833;BME280;58452;59.418;17.962;2023-01-28T10:30:24;101282.94;;;1.13;85.47
70833;BME280;58452;59.418;17.962;2023-01-28T10:35:21;101256.16;;;1.06;85.43
70833;BME280;58452;59.418;17.962;2023-01-28T10:37:48;101273.50;;;0.96;86.36
70833;BME280;58452;59.418;17.962;2023-01-28T10:40:17;101271.06;;;0.94;86.17
70833;BME280;58452;59.418;17.962;2023-01-28T10:42:44;101281.97;;;0.96;86.91
70833;BME280;58452;59.418;17.962;2023-01-28T10:45:19;101284.38;;;0.99;86.29
70833;BME280;58452;59.418;17.962;2023-01-28T10:47:58;101281.91;;;0.98;86.83
70833;BME280;58452;59.418;17.962;2023-01-28T10:50:27;101294.28;;;1.06;86.56
70833;BME280;58452;59.418;17.962;2023-01-28T10:53:00;101288.03;;;1.13;86.48
70833;BME280;58452;59.418;17.962;2023-01-28T10:55:49;101274.06;;;1.21;86.98
70833;BME280;58452;59.418;17.962;2023-01-28T10:58:20;101267.91;;;1.27;86.64
70833;BME280;58452;59.418;17.962;2023-01-28T11:00:52;101273.94;;;1.43;86.36
70833;BME280;58452;59.418;17.962;2023-01-28T11:03:18;101272.00;;;1.48;85.87
70833;BME280;58452;59.418;17.962;2023-01-28T11:05:52;101276.81;;;1.54;85.60
70833;BME280;58452;59.418;17.962;2023-01-28T11:08:18;101268.13;;;1.58;85.32
70833;BME280;58452;59.418;17.962;2023-01-28T11:10:45;101262.78;;;1.64;85.64
70833;BME280;58452;59.418;17.962;2023-01-28T11:15:49;101253.81;;;1.74;85.31
70833;BME280;58452;59.418;17.962;2023-01-28T11:18:18;101254.63;;;1.75;84.76
70833;BME280;58452;59.418;17.962;2023-01-28T11:20:51;101245.88;;;1.80;84.88
70833;BME280;58452;59.418;17.962;2023-01-28T11:23:21;101253.81;;;1.74;84.88
70833;BME280;58452;59.418;17.962;2023-01-28T11:25:48;101251.94;;;1.78;84.88
70833;BME280;58452;59.418;17.962;2023-01-28T11:28:22;101255.47;;;1.75;85.06
70833;BME280;58452;59.418;17.962;2023-01-28T11:30:53;101255.00;;;1.84;84.34
70833;BME280;58452;59.418;17.962;2023-01-28T11:33:37;101245.22;;;1.94;84.53
70833;BME280;58452;59.418;17.962;2023-01-28T11:36:19;101247.25;;;2.05;84.45
70833;BME280;58452;59.418;17.962;2023-01-28T11:38:52;101238.41;;;2.12;83.72
70833;BME280;58452;59.418;17.962;2023-01-28T11:41:26;101233.38;;;2.10;83.91
70833;BME280;58452;59.418;17.962;2023-01-28T11:43:52;101219.16;;;2.06;83.96
70833;BME280;58452;59.418;17.962;2023-01-28T11:57:23;101212.66;;;2.01;84.22
70833;BME280;58452;59.418;17.962;2023-01-28T12:03:09;101202.31;;;2.04;84.14
70833;BME280;58452;59.418;17.962;2023-01-28T12:08:06;101205.91;;;2.00;84.75
70833;BME280;58452;59.418;17.962;2023-01-28T12:13:49;101206.00;;;1.98;84.87
70833;BME280;58452;59.418;17.962;2023-01-28T12:16:46;101194.84;;;2.01;84.77
70833;BME280;58452;59.418;17.962;2023-01-28T12:19:35;101199.03;;;2.02;85.08
70833;BME280;58452;59.418;17.962;2023-01-28T12:25:18;101193.19;;;2.00;84.74
70833;BME280;58452;59.418;17.962;2023-01-28T12:28:11;101188.09;;;2.00;84.89
70833;BME280;58452;59.418;17.962;2023-01-28T12:31:30;101188.97;;;1.98;85.01
70833;BME280;58452;59.418;17.962;2023-01-28T12:39:29;101200.66;;;2.03;84.72
70833;BME280;58452;59.418;17.962;2023-01-28T12:42:26;101199.47;;;2.10;84.53
70833;BME280;58452;59.418;17.962;2023-01-28T12:45:14;101198.63;;;2.09;84.45
70833;BME280;58452;59.418;17.962;2023-01-28T12:47:54;101195.88;;;2.14;84.18
70833;BME280;58452;59.418;17.962;2023-01-28T12:50:29;101201.13;;;2.11;84.20
70833;BME280;58452;59.418;17.962;2023-01-28T12:53:03;101196.53;;;2.17;84.03
70833;BME280;58452;59.418;17.962;2023-01-28T12:55:43;101194.91;;;2.16;83.72
70833;BME280;58452;59.418;17.962;2023-01-28T13:01:19;101194.81;;;2.18;83.75
70833;BME280;58452;59.418;17.962;2023-01-28T13:03:54;101200.00;;;2.16;83.29
70833;BME280;58452;59.418;17.962;2023-01-28T13:06:38;101193.69;;;2.23;82.90
70833;BME280;58452;59.418;17.962;2023-01-28T13:09:20;101197.75;;;2.27;82.64
70833;BME280;58452;59.418;17.962;2023-01-28T13:11:48;101196.38;;;2.20;83.30
70833;BME280;58452;59.418;17.962;2023-01-28T13:14:15;101197.97;;;2.23;83.55
70833;BME280;58452;59.418;17.962;2023-01-28T13:16:41;101200.34;;;2.26;82.79
70833;BME280;58452;59.418;17.962;2023-01-28T13:19:35;101208.72;;;2.28;82.69
70833;BME280;58452;59.418;17.962;2023-01-28T13:22:10;101207.09;;;2.27;82.71
70833;BME280;58452;59.418;17.962;2023-01-28T13:24:36;101198.41;;;2.31;82.50
70833;BME280;58452;59.418;17.962;2023-01-28T13:27:11;101198.63;;;2.26;82.81
70833;BME280;58452;59.418;17.962;2023-01-28T13:29:37;101191.16;;;2.23;82.77
70833;BME280;58452;59.418;17.962;2023-01-28T13:32:33;101197.53;;;2.15;83.08
70833;BME280;58452;59.418;17.962;2023-01-28T13:35:05;101198.34;;;2.15;83.21
70833;BME280;58452;59.418;17.962;2023-01-28T13:37:32;101209.50;;;2.13;83.15
70833;BME280;58452;59.418;17.962;2023-01-28T13:42:39;101201.44;;;2.05;83.64
70833;BME280;58452;59.418;17.962;2023-01-28T13:45:20;101204.88;;;2.04;84.17
70833;BME280;58452;59.418;17.962;2023-01-28T13:47:49;101206.69;;;2.02;83.57
70833;BME280;58452;59.418;17.962;2023-01-28T13:50:21;101207.34;;;2.05;83.71
70833;BME280;58452;59.418;17.962;2023-01-28T13:52:57;101211.59;;;2.05;83.83
70833;BME280;58452;59.418;17.962;2023-01-28T13:55:26;101207.78;;;1.96;84.10
70833;BME280;58452;59.418;17.962;2023-01-28T14:11:33;101217.13;;;1.95;83.40
70833;BME280;58452;59.418;17.962;2023-01-28T14:16:55;101218.13;;;1.93;83.61
70833;BME280;58452;59.418;17.962;2023-01-28T14:19:36;101216.56;;;1.90;83.77
70833;BME280;58452;59.418;17.962;2023-01-28T14:22:28;101218.56;;;1.84;83.99